Earlville, Illinois
Current Conditions -  °F | °C
As of 6:35 PM on Monday 22 Dec 2014 (Local Time) from KVYS Reporting Station
Haze Haze  
Wind Chill: 36°   Ceiling: 300
Heat Index: 42°   Visibility: 2.5mi
Dew Point: 41°   Wind: 12mph
Humidity: 97%   Direction: 130°SE
Pressure: 29.61"   Gusts: NA
Location:  41.59°N, 88.92°W
Report Text: KVYS 230035Z AUTO 13010KT 2 1/2SM BR OVC003 06/05 A2961 RMK AO2 T00560052
Loading
Personal Weather Stations






























Interactive Weather Map New forecast layout! Learn more

10-Day Weather Forecast

Advertisements
Track Severe Weather on mobile